< < Back
Terminal Aerodrome Forecast


Current Version              Previous Versions:   1  2  3  4  5  6  7  8  9  

Terminal Aerodrome Forecast

180
FTUS42 KMLB 250500
TAFMCO
TAF
KMCO 250529Z 2506/2606 31007KT P6SM FEW200
     FM251700 28005KT P6SM FEW150 SCT250
     FM252300 25005KT P6SM SCT100 BKN250=

Latest METAR

551
SAUS70 KWBC 251600 RRE
MTRMCO
METAR KMCO 251553Z 32008KT 10SM FEW200 BKN250 13/M01 A3011 RMK AO2
SLP194 T01331006


USA.gov is the U.S. government's official web portal to all federal, state and local government web resources and services.